sensor_id;sensor_type;location;lat;lon;timestamp;temperature;humidity
52859;DHT22;38721;53.098;6.596;2023-04-06T00:01:56;1.50;75.40
52859;DHT22;38721;53.098;6.596;2023-04-06T00:04:21;1.40;1.00
52859;DHT22;38721;53.098;6.596;2023-04-06T00:06:47;1.40;1.00
52859;DHT22;38721;53.098;6.596;2023-04-06T00:09:13;1.40;99.90
52859;DHT22;38721;53.098;6.596;2023-04-06T00:11:39;1.40;99.90
52859;DHT22;38721;53.098;6.596;2023-04-06T00:14:04;1.40;99.90
52859;DHT22;38721;53.098;6.596;2023-04-06T00:16:30;1.40;99.90
52859;DHT22;38721;53.098;6.596;2023-04-06T00:18:56;1.40;99.90
52859;DHT22;38721;53.098;6.596;2023-04-06T00:21:21;1.40;99.90
52859;DHT22;38721;53.098;6.596;2023-04-06T00:23:47;1.40;99.90
52859;DHT22;38721;53.098;6.596;2023-04-06T00:26:16;1.40;99.90
52859;DHT22;38721;53.098;6.596;2023-04-06T00:28:44;1.40;99.90
52859;DHT22;38721;53.098;6.596;2023-04-06T00:31:10;1.40;99.90
52859;DHT22;38721;53.098;6.596;2023-04-06T00:33:36;1.40;99.90
52859;DHT22;38721;53.098;6.596;2023-04-06T00:36:02;1.30;99.90
52859;DHT22;38721;53.098;6.596;2023-04-06T00:38:27;1.20;99.90
52859;DHT22;38721;53.098;6.596;2023-04-06T00:40:53;1.30;99.90
52859;DHT22;38721;53.098;6.596;2023-04-06T00:43:19;1.30;99.90
52859;DHT22;38721;53.098;6.596;2023-04-06T00:45:47;1.20;99.90
52859;DHT22;38721;53.098;6.596;2023-04-06T00:48:13;1.20;99.90
52859;DHT22;38721;53.098;6.596;2023-04-06T00:50:38;1.20;99.90
52859;DHT22;38721;53.098;6.596;2023-04-06T00:53:05;1.20;99.90
52859;DHT22;38721;53.098;6.596;2023-04-06T00:55:30;1.20;99.90
52859;DHT22;38721;53.098;6.596;2023-04-06T00:57:58;1.10;99.90
52859;DHT22;38721;53.098;6.596;2023-04-06T01:00:27;1.10;99.90
52859;DHT22;38721;53.098;6.596;2023-04-06T01:02:53;1.10;1.00
52859;DHT22;38721;53.098;6.596;2023-04-06T01:05:19;1.10;1.00
52859;DHT22;38721;53.098;6.596;2023-04-06T01:07:45;1.10;99.90
52859;DHT22;38721;53.098;6.596;2023-04-06T01:10:11;1.00;99.90
52859;DHT22;38721;53.098;6.596;2023-04-06T01:12:47;1.00;99.90
52859;DHT22;38721;53.098;6.596;2023-04-06T01:15:13;1.00;99.90
52859;DHT22;38721;53.098;6.596;2023-04-06T01:17:38;1.00;99.90
52859;DHT22;38721;53.098;6.596;2023-04-06T01:20:06;1.00;99.90
52859;DHT22;38721;53.098;6.596;2023-04-06T01:22:32;0.90;99.90
52859;DHT22;38721;53.098;6.596;2023-04-06T01:24:58;1.00;99.90
52859;DHT22;38721;53.098;6.596;2023-04-06T01:27:23;0.90;1.00
52859;DHT22;38721;53.098;6.596;2023-04-06T01:29:50;0.90;71.10
52859;DHT22;38721;53.098;6.596;2023-04-06T01:32:16;0.80;1.00
52859;DHT22;38721;53.098;6.596;2023-04-06T01:34:42;0.80;99.90
52859;DHT22;38721;53.098;6.596;2023-04-06T01:37:07;0.80;38.20
52859;DHT22;38721;53.098;6.596;2023-04-06T01:39:33;0.80;1.00
52859;DHT22;38721;53.098;6.596;2023-04-06T01:41:59;0.80;1.00
52859;DHT22;38721;53.098;6.596;2023-04-06T01:44:25;0.70;66.70
52859;DHT22;38721;53.098;6.596;2023-04-06T01:46:50;0.70;1.00
52859;DHT22;38721;53.098;6.596;2023-04-06T01:49:16;0.70;99.90
52859;DHT22;38721;53.098;6.596;2023-04-06T01:51:42;0.70;99.90
52859;DHT22;38721;53.098;6.596;2023-04-06T01:54:07;0.70;99.90
52859;DHT22;38721;53.098;6.596;2023-04-06T01:56:33;0.70;99.90
52859;DHT22;38721;53.098;6.596;2023-04-06T01:58:59;0.60;99.90
52859;DHT22;38721;53.098;6.596;2023-04-06T02:01:25;0.60;99.90
52859;DHT22;38721;53.098;6.596;2023-04-06T02:03:50;0.60;99.90
52859;DHT22;38721;53.098;6.596;2023-04-06T02:06:16;0.50;1.00
52859;DHT22;38721;53.098;6.596;2023-04-06T02:08:42;0.50;1.00
52859;DHT22;38721;53.098;6.596;2023-04-06T02:11:07;0.50;99.90
52859;DHT22;38721;53.098;6.596;2023-04-06T02:13:33;0.50;99.90
52859;DHT22;38721;53.098;6.596;2023-04-06T02:15:59;0.50;99.90
52859;DHT22;38721;53.098;6.596;2023-04-06T02:18:24;0.50;97.50
52859;DHT22;38721;53.098;6.596;2023-04-06T02:20:50;0.50;99.90
52859;DHT22;38721;53.098;6.596;2023-04-06T02:23:16;0.50;99.90
52859;DHT22;38721;53.098;6.596;2023-04-06T02:25:42;0.50;1.00
52859;DHT22;38721;53.098;6.596;2023-04-06T02:28:07;0.50;1.00
52859;DHT22;38721;53.098;6.596;2023-04-06T02:30:36;0.50;1.00
52859;DHT22;38721;53.098;6.596;2023-04-06T02:33:02;0.40;1.00
52859;DHT22;38721;53.098;6.596;2023-04-06T02:35:28;0.40;99.90
52859;DHT22;38721;53.098;6.596;2023-04-06T02:37:54;0.40;99.90
52859;DHT22;38721;53.098;6.596;2023-04-06T02:40:20;0.30;99.90
52859;DHT22;38721;53.098;6.596;2023-04-06T02:42:46;0.30;99.90
52859;DHT22;38721;53.098;6.596;2023-04-06T02:45:11;0.30;99.90
52859;DHT22;38721;53.098;6.596;2023-04-06T02:47:41;0.30;99.90
52859;DHT22;38721;53.098;6.596;2023-04-06T02:50:07;0.30;99.90
52859;DHT22;38721;53.098;6.596;2023-04-06T02:52:32;0.30;1.00
52859;DHT22;38721;53.098;6.596;2023-04-06T02:54:58;0.30;1.00
52859;DHT22;38721;53.098;6.596;2023-04-06T02:57:24;0.20;1.00
52859;DHT22;38721;53.098;6.596;2023-04-06T02:59:49;0.20;1.00
52859;DHT22;38721;53.098;6.596;2023-04-06T03:02:15;0.20;99.90
52859;DHT22;38721;53.098;6.596;2023-04-06T03:04:44;0.20;99.90
52859;DHT22;38721;53.098;6.596;2023-04-06T03:07:10;0.10;99.90
52859;DHT22;38721;53.098;6.596;2023-04-06T03:09:37;0.10;99.90
52859;DHT22;38721;53.098;6.596;2023-04-06T03:12:04;0.10;99.90
52859;DHT22;38721;53.098;6.596;2023-04-06T03:14:29;0.10;99.90
52859;DHT22;38721;53.098;6.596;2023-04-06T03:16:55;0.10;99.90
52859;DHT22;38721;53.098;6.596;2023-04-06T03:19:23;0.10;99.90
52859;DHT22;38721;53.098;6.596;2023-04-06T03:21:49;0.00;99.90
52859;DHT22;38721;53.098;6.596;2023-04-06T03:24:15;0.00;99.90
52859;DHT22;38721;53.098;6.596;2023-04-06T03:26:41;0.00;99.90
52859;DHT22;38721;53.098;6.596;2023-04-06T03:29:07;0.00;22.00
52859;DHT22;38721;53.098;6.596;2023-04-06T03:31:33;-0.10;61.80
52859;DHT22;38721;53.098;6.596;2023-04-06T03:33:58;-0.10;76.10
52859;DHT22;38721;53.098;6.596;2023-04-06T03:36:24;-0.10;75.00
52859;DHT22;38721;53.098;6.596;2023-04-06T03:38:51;-0.10;99.90
52859;DHT22;38721;53.098;6.596;2023-04-06T03:41:19;-0.10;97.10
52859;DHT22;38721;53.098;6.596;2023-04-06T03:43:45;-0.10;64.90
52859;DHT22;38721;53.098;6.596;2023-04-06T03:46:11;-0.20;63.80
52859;DHT22;38721;53.098;6.596;2023-04-06T03:48:36;-0.20;99.90
52859;DHT22;38721;53.098;6.596;2023-04-06T03:51:02;-0.20;99.90
52859;DHT22;38721;53.098;6.596;2023-04-06T03:53:28;-0.20;99.90
52859;DHT22;38721;53.098;6.596;2023-04-06T03:55:56;-0.20;99.90
52859;DHT22;38721;53.098;6.596;2023-04-06T03:58:21;-0.30;1.00
52859;DHT22;38721;53.098;6.596;2023-04-06T04:00:47;-0.30;10.60
52859;DHT22;38721;53.098;6.596;2023-04-06T04:03:13;-0.30;99.90
52859;DHT22;38721;53.098;6.596;2023-04-06T04:05:38;-0.30;99.90
52859;DHT22;38721;53.098;6.596;2023-04-06T04:08:04;-0.30;80.50
52859;DHT22;38721;53.098;6.596;2023-04-06T04:10:31;-0.40;1.00
52859;DHT22;38721;53.098;6.596;2023-04-06T04:13:00;-0.40;29.40
52859;DHT22;38721;53.098;6.596;2023-04-06T04:15:26;-0.40;99.90
52859;DHT22;38721;53.098;6.596;2023-04-06T04:17:51;-0.40;99.90
52859;DHT22;38721;53.098;6.596;2023-04-06T04:20:17;-0.40;99.90
52859;DHT22;38721;53.098;6.596;2023-04-06T04:22:43;-0.40;99.90
52859;DHT22;38721;53.098;6.596;2023-04-06T04:25:09;-0.40;99.90
52859;DHT22;38721;53.098;6.596;2023-04-06T04:27:35;-0.40;99.90
52859;DHT22;38721;53.098;6.596;2023-04-06T04:30:04;-0.50;99.90
52859;DHT22;38721;53.098;6.596;2023-04-06T04:32:30;-0.40;99.90
52859;DHT22;38721;53.098;6.596;2023-04-06T04:34:55;-0.40;99.90
52859;DHT22;38721;53.098;6.596;2023-04-06T04:37:21;-0.40;99.90
52859;DHT22;38721;53.098;6.596;2023-04-06T04:39:47;-0.50;99.90
52859;DHT22;38721;53.098;6.596;2023-04-06T04:42:13;-0.40;99.90
52859;DHT22;38721;53.098;6.596;2023-04-06T04:44:38;-0.50;99.90
52859;DHT22;38721;53.098;6.596;2023-04-06T04:47:07;-0.50;99.90
52859;DHT22;38721;53.098;6.596;2023-04-06T04:49:33;-0.50;99.90
52859;DHT22;38721;53.098;6.596;2023-04-06T04:51:58;-0.40;99.90
52859;DHT22;38721;53.098;6.596;2023-04-06T04:54:24;-0.50;99.90
52859;DHT22;38721;53.098;6.596;2023-04-06T04:56:50;-0.40;99.90
52859;DHT22;38721;53.098;6.596;2023-04-06T04:59:16;-0.50;99.90
52859;DHT22;38721;53.098;6.596;2023-04-06T05:01:42;-0.40;99.90
52859;DHT22;38721;53.098;6.596;2023-04-06T05:04:08;-0.50;99.90
52859;DHT22;38721;53.098;6.596;2023-04-06T05:06:34;-0.50;99.90
52859;DHT22;38721;53.098;6.596;2023-04-06T05:08:59;-0.40;99.90
52859;DHT22;38721;53.098;6.596;2023-04-06T05:11:25;-0.40;99.90
52859;DHT22;38721;53.098;6.596;2023-04-06T05:13:51;-0.40;99.90
52859;DHT22;38721;53.098;6.596;2023-04-06T05:16:17;-0.40;99.90
52859;DHT22;38721;53.098;6.596;2023-04-06T05:18:43;-0.30;99.90
52859;DHT22;38721;53.098;6.596;2023-04-06T05:21:10;-0.30;99.90
52859;DHT22;38721;53.098;6.596;2023-04-06T05:23:36;-0.20;99.90
52859;DHT22;38721;53.098;6.596;2023-04-06T05:26:05;-0.20;76.00
52859;DHT22;38721;53.098;6.596;2023-04-06T05:28:31;-0.20;91.10
52859;DHT22;38721;53.098;6.596;2023-04-06T05:30:57;-0.10;81.30
52859;DHT22;38721;53.098;6.596;2023-04-06T05:33:24;-0.10;15.80
52859;DHT22;38721;53.098;6.596;2023-04-06T05:35:50;0.00;1.00
52859;DHT22;38721;53.098;6.596;2023-04-06T05:38:16;0.00;1.00
52859;DHT22;38721;53.098;6.596;2023-04-06T05:40:41;0.10;99.90
52859;DHT22;38721;53.098;6.596;2023-04-06T05:43:08;0.20;1.00
52859;DHT22;38721;53.098;6.596;2023-04-06T05:45:35;0.30;1.00
52859;DHT22;38721;53.098;6.596;2023-04-06T05:48:02;0.30;1.00
52859;DHT22;38721;53.098;6.596;2023-04-06T05:50:28;0.40;1.00
52859;DHT22;38721;53.098;6.596;2023-04-06T05:52:54;0.50;1.00
52859;DHT22;38721;53.098;6.596;2023-04-06T05:55:19;0.60;1.00
52859;DHT22;38721;53.098;6.596;2023-04-06T05:57:48;0.70;1.00
52859;DHT22;38721;53.098;6.596;2023-04-06T06:00:14;0.70;1.00
52859;DHT22;38721;53.098;6.596;2023-04-06T06:02:40;0.80;99.90
52859;DHT22;38721;53.098;6.596;2023-04-06T06:05:08;0.90;99.90
52859;DHT22;38721;53.098;6.596;2023-04-06T06:07:34;1.00;99.90
52859;DHT22;38721;53.098;6.596;2023-04-06T06:09:59;1.10;99.90
52859;DHT22;38721;53.098;6.596;2023-04-06T06:12:28;1.20;99.90
52859;DHT22;38721;53.098;6.596;2023-04-06T06:14:54;1.40;99.90
52859;DHT22;38721;53.098;6.596;2023-04-06T06:17:20;1.40;99.90
52859;DHT22;38721;53.098;6.596;2023-04-06T06:19:46;1.60;99.90
52859;DHT22;38721;53.098;6.596;2023-04-06T06:22:12;1.70;99.90
52859;DHT22;38721;53.098;6.596;2023-04-06T06:24:37;1.70;1.00
52859;DHT22;38721;53.098;6.596;2023-04-06T06:27:03;1.90;1.00
52859;DHT22;38721;53.098;6.596;2023-04-06T06:29:31;2.00;1.00
52859;DHT22;38721;53.098;6.596;2023-04-06T06:31:57;2.10;99.90
52859;DHT22;38721;53.098;6.596;2023-04-06T06:34:23;2.20;99.90
52859;DHT22;38721;53.098;6.596;2023-04-06T06:36:48;2.30;99.90
52859;DHT22;38721;53.098;6.596;2023-04-06T06:39:14;2.40;43.90
52859;DHT22;38721;53.098;6.596;2023-04-06T06:41:42;2.50;81.20
52859;DHT22;38721;53.098;6.596;2023-04-06T06:44:11;2.60;99.90
52859;DHT22;38721;53.098;6.596;2023-04-06T06:46:37;2.70;99.90
52859;DHT22;38721;53.098;6.596;2023-04-06T06:49:02;2.90;1.00
52859;DHT22;38721;53.098;6.596;2023-04-06T06:51:28;3.00;82.70
52859;DHT22;38721;53.098;6.596;2023-04-06T06:53:54;3.10;99.90
52859;DHT22;38721;53.098;6.596;2023-04-06T06:56:20;3.20;99.90
52859;DHT22;38721;53.098;6.596;2023-04-06T06:58:46;3.40;99.90
52859;DHT22;38721;53.098;6.596;2023-04-06T07:01:11;3.50;99.90
52859;DHT22;38721;53.098;6.596;2023-04-06T07:03:40;3.60;1.00
52859;DHT22;38721;53.098;6.596;2023-04-06T07:06:06;3.70;99.90
52859;DHT22;38721;53.098;6.596;2023-04-06T07:08:32;3.80;41.30
52859;DHT22;38721;53.098;6.596;2023-04-06T07:10:57;3.90;1.00
52859;DHT22;38721;53.098;6.596;2023-04-06T07:13:23;4.10;99.90
52859;DHT22;38721;53.098;6.596;2023-04-06T07:15:50;4.20;99.90
52859;DHT22;38721;53.098;6.596;2023-04-06T07:18:16;4.30;1.00
52859;DHT22;38721;53.098;6.596;2023-04-06T07:20:46;4.40;1.00
52859;DHT22;38721;53.098;6.596;2023-04-06T07:23:12;4.50;1.00
52859;DHT22;38721;53.098;6.596;2023-04-06T07:25:37;4.60;99.90
52859;DHT22;38721;53.098;6.596;2023-04-06T07:28:03;4.70;99.90
52859;DHT22;38721;53.098;6.596;2023-04-06T07:30:29;4.80;99.90
52859;DHT22;38721;53.098;6.596;2023-04-06T07:32:55;5.00;99.90
52859;DHT22;38721;53.098;6.596;2023-04-06T07:35:26;5.10;96.80
52859;DHT22;38721;53.098;6.596;2023-04-06T07:37:52;5.30;52.40
52859;DHT22;38721;53.098;6.596;2023-04-06T07:40:18;5.40;1.00
52859;DHT22;38721;53.098;6.596;2023-04-06T07:42:45;5.50;99.90
52859;DHT22;38721;53.098;6.596;2023-04-06T07:45:11;5.70;99.90
52859;DHT22;38721;53.098;6.596;2023-04-06T07:47:40;5.80;99.90
52859;DHT22;38721;53.098;6.596;2023-04-06T07:50:06;5.90;99.90
52859;DHT22;38721;53.098;6.596;2023-04-06T07:52:32;6.00;99.90
52859;DHT22;38721;53.098;6.596;2023-04-06T07:54:58;6.20;99.90
52859;DHT22;38721;53.098;6.596;2023-04-06T07:57:24;6.30;99.90
52859;DHT22;38721;53.098;6.596;2023-04-06T07:59:50;6.40;61.30
52859;DHT22;38721;53.098;6.596;2023-04-06T08:02:16;6.50;1.00
52859;DHT22;38721;53.098;6.596;2023-04-06T08:04:42;6.60;1.00
52859;DHT22;38721;53.098;6.596;2023-04-06T08:07:08;6.80;1.00
52859;DHT22;38721;53.098;6.596;2023-04-06T08:09:34;6.90;1.00
52859;DHT22;38721;53.098;6.596;2023-04-06T08:12:00;7.00;99.90
52859;DHT22;38721;53.098;6.596;2023-04-06T08:14:25;7.20;99.90
52859;DHT22;38721;53.098;6.596;2023-04-06T08:16:51;7.30;99.90
52859;DHT22;38721;53.098;6.596;2023-04-06T08:19:17;7.50;99.90
52859;DHT22;38721;53.098;6.596;2023-04-06T08:21:44;7.70;99.90
52859;DHT22;38721;53.098;6.596;2023-04-06T08:24:11;7.90;99.90
52859;DHT22;38721;53.098;6.596;2023-04-06T08:26:37;7.90;99.90
52859;DHT22;38721;53.098;6.596;2023-04-06T08:29:03;8.10;99.90
52859;DHT22;38721;53.098;6.596;2023-04-06T08:31:30;8.30;99.90
52859;DHT22;38721;53.098;6.596;2023-04-06T08:33:56;8.50;99.90
52859;DHT22;38721;53.098;6.596;2023-04-06T08:36:21;8.70;99.90
52859;DHT22;38721;53.098;6.596;2023-04-06T08:38:49;8.80;99.90
52859;DHT22;38721;53.098;6.596;2023-04-06T08:41:15;8.90;99.90
52859;DHT22;38721;53.098;6.596;2023-04-06T08:43:50;9.10;99.90
52859;DHT22;38721;53.098;6.596;2023-04-06T08:46:17;9.40;99.90
52859;DHT22;38721;53.098;6.596;2023-04-06T08:48:43;9.50;99.90
52859;DHT22;38721;53.098;6.596;2023-04-06T08:51:11;9.60;99.90
52859;DHT22;38721;53.098;6.596;2023-04-06T08:53:37;9.70;99.90
52859;DHT22;38721;53.098;6.596;2023-04-06T08:56:04;10.00;99.90
52859;DHT22;38721;53.098;6.596;2023-04-06T08:58:39;10.10;99.90
52859;DHT22;38721;53.098;6.596;2023-04-06T09:01:07;10.40;99.90
52859;DHT22;38721;53.098;6.596;2023-04-06T09:03:37;10.50;99.90
52859;DHT22;38721;53.098;6.596;2023-04-06T09:06:04;10.70;99.90
52859;DHT22;38721;53.098;6.596;2023-04-06T09:08:34;10.80;99.90
52859;DHT22;38721;53.098;6.596;2023-04-06T09:11:01;11.20;99.90
52859;DHT22;38721;53.098;6.596;2023-04-06T09:13:27;11.40;99.90
52859;DHT22;38721;53.098;6.596;2023-04-06T09:16:04;11.50;99.90
52859;DHT22;38721;53.098;6.596;2023-04-06T09:18:32;11.80;99.90
52859;DHT22;38721;53.098;6.596;2023-04-06T09:23:24;12.00;99.90
52859;DHT22;38721;53.098;6.596;2023-04-06T09:25:50;12.20;99.90
52859;DHT22;38721;53.098;6.596;2023-04-06T09:28:16;12.20;99.90
52859;DHT22;38721;53.098;6.596;2023-04-06T09:30:48;12.20;99.90
52859;DHT22;38721;53.098;6.596;2023-04-06T09:33:23;12.50;99.90
52859;DHT22;38721;53.098;6.596;2023-04-06T09:35:51;12.40;99.90
52859;DHT22;38721;53.098;6.596;2023-04-06T09:38:17;12.20;99.90
52859;DHT22;38721;53.098;6.596;2023-04-06T09:40:52;12.20;99.90
52859;DHT22;38721;53.098;6.596;2023-04-06T09:43:27;12.30;96.20
52859;DHT22;38721;53.098;6.596;2023-04-06T09:45:53;12.30;91.90
52859;DHT22;38721;53.098;6.596;2023-04-06T09:48:20;12.30;86.10
52859;DHT22;38721;53.098;6.596;2023-04-06T09:50:49;12.30;83.80
52859;DHT22;38721;53.098;6.596;2023-04-06T09:53:19;12.70;96.20
52859;DHT22;38721;53.098;6.596;2023-04-06T09:55:46;12.30;53.00
52859;DHT22;38721;53.098;6.596;2023-04-06T09:58:16;12.40;46.90
52859;DHT22;38721;53.098;6.596;2023-04-06T10:01:03;12.30;50.00
52859;DHT22;38721;53.098;6.596;2023-04-06T10:06:13;12.40;32.60
52859;DHT22;38721;53.098;6.596;2023-04-06T10:08:41;12.50;31.50
52859;DHT22;38721;53.098;6.596;2023-04-06T10:11:08;12.50;36.80
52859;DHT22;38721;53.098;6.596;2023-04-06T10:13:35;12.70;25.50
52859;DHT22;38721;53.098;6.596;2023-04-06T10:16:01;12.80;42.70
52859;DHT22;38721;53.098;6.596;2023-04-06T10:18:27;12.90;34.40
52859;DHT22;38721;53.098;6.596;2023-04-06T10:21:06;13.00;38.80
52859;DHT22;38721;53.098;6.596;2023-04-06T10:26:02;13.00;13.00
52859;DHT22;38721;53.098;6.596;2023-04-06T10:28:35;13.20;11.30
52859;DHT22;38721;53.098;6.596;2023-04-06T10:31:08;13.30;9.70
52859;DHT22;38721;53.098;6.596;2023-04-06T10:33:34;13.40;12.40
52859;DHT22;38721;53.098;6.596;2023-04-06T10:36:13;13.40;9.10
52859;DHT22;38721;53.098;6.596;2023-04-06T10:38:41;12.90;1.00
52859;DHT22;38721;53.098;6.596;2023-04-06T10:41:10;13.00;1.00
52859;DHT22;38721;53.098;6.596;2023-04-06T10:43:38;13.30;1.00
52859;DHT22;38721;53.098;6.596;2023-04-06T10:46:05;13.50;1.00
52859;DHT22;38721;53.098;6.596;2023-04-06T10:48:45;13.50;1.00
52859;DHT22;38721;53.098;6.596;2023-04-06T10:51:16;13.50;1.00
52859;DHT22;38721;53.098;6.596;2023-04-06T10:53:47;13.80;1.00
52859;DHT22;38721;53.098;6.596;2023-04-06T10:56:18;14.00;3.20
52859;DHT22;38721;53.098;6.596;2023-04-06T10:58:51;14.20;1.00
52859;DHT22;38721;53.098;6.596;2023-04-06T11:01:19;14.20;1.00
52859;DHT22;38721;53.098;6.596;2023-04-06T11:03:53;14.40;1.00
52859;DHT22;38721;53.098;6.596;2023-04-06T11:06:24;13.90;1.00
52859;DHT22;38721;53.098;6.596;2023-04-06T11:08:54;14.00;1.00
52859;DHT22;38721;53.098;6.596;2023-04-06T11:11:24;14.00;1.00
52859;DHT22;38721;53.098;6.596;2023-04-06T11:13:59;14.20;1.00
52859;DHT22;38721;53.098;6.596;2023-04-06T11:16:28;14.30;1.00
52859;DHT22;38721;53.098;6.596;2023-04-06T11:21:32;13.60;1.00
52859;DHT22;38721;53.098;6.596;2023-04-06T11:26:57;14.30;1.00
52859;DHT22;38721;53.098;6.596;2023-04-06T11:29:29;14.40;1.00
52859;DHT22;38721;53.098;6.596;2023-04-06T11:32:03;14.30;1.00
52859;DHT22;38721;53.098;6.596;2023-04-06T11:34:31;14.30;1.00
52859;DHT22;38721;53.098;6.596;2023-04-06T11:37:02;14.40;1.00
52859;DHT22;38721;53.098;6.596;2023-04-06T11:39:32;14.60;1.00
52859;DHT22;38721;53.098;6.596;2023-04-06T11:42:04;14.50;1.00
52859;DHT22;38721;53.098;6.596;2023-04-06T11:44:43;14.60;1.00
52859;DHT22;38721;53.098;6.596;2023-04-06T11:47:11;14.80;1.00
52859;DHT22;38721;53.098;6.596;2023-04-06T11:49:39;15.10;1.00
52859;DHT22;38721;53.098;6.596;2023-04-06T11:52:18;14.60;1.00
52859;DHT22;38721;53.098;6.596;2023-04-06T11:54:44;14.70;1.00
52859;DHT22;38721;53.098;6.596;2023-04-06T11:57:10;14.90;1.00
52859;DHT22;38721;53.098;6.596;2023-04-06T11:59:35;14.50;1.00
52859;DHT22;38721;53.098;6.596;2023-04-06T12:02:05;14.50;1.00
52859;DHT22;38721;53.098;6.596;2023-04-06T12:04:31;14.40;1.00
52859;DHT22;38721;53.098;6.596;2023-04-06T12:06:57;14.20;1.00
52859;DHT22;38721;53.098;6.596;2023-04-06T12:09:23;14.30;1.00
52859;DHT22;38721;53.098;6.596;2023-04-06T12:11:48;14.50;1.00
52859;DHT22;38721;53.098;6.596;2023-04-06T12:14:14;14.70;1.00
52859;DHT22;38721;53.098;6.596;2023-04-06T12:16:40;15.00;1.00
52859;DHT22;38721;53.098;6.596;2023-04-06T12:19:06;15.10;1.00
52859;DHT22;38721;53.098;6.596;2023-04-06T12:21:33;14.70;1.00
52859;DHT22;38721;53.098;6.596;2023-04-06T12:23:59;14.80;1.00
52859;DHT22;38721;53.098;6.596;2023-04-06T12:26:26;14.60;1.00
52859;DHT22;38721;53.098;6.596;2023-04-06T12:28:52;14.60;1.00
52859;DHT22;38721;53.098;6.596;2023-04-06T12:31:18;14.40;1.00
52859;DHT22;38721;53.098;6.596;2023-04-06T12:33:48;14.50;1.00
52859;DHT22;38721;53.098;6.596;2023-04-06T12:36:16;14.50;1.00
52859;DHT22;38721;53.098;6.596;2023-04-06T12:38:45;14.20;1.00
52859;DHT22;38721;53.098;6.596;2023-04-06T12:41:12;13.90;1.00
52859;DHT22;38721;53.098;6.596;2023-04-06T12:43:42;14.40;1.00
52859;DHT22;38721;53.098;6.596;2023-04-06T12:46:11;14.50;1.00
52859;DHT22;38721;53.098;6.596;2023-04-06T12:48:37;14.40;1.00
52859;DHT22;38721;53.098;6.596;2023-04-06T12:51:09;14.20;1.00
52859;DHT22;38721;53.098;6.596;2023-04-06T12:53:35;14.40;1.00
52859;DHT22;38721;53.098;6.596;2023-04-06T12:56:01;14.60;1.00
52859;DHT22;38721;53.098;6.596;2023-04-06T12:58:27;14.30;1.00
52859;DHT22;38721;53.098;6.596;2023-04-06T13:00:54;14.50;1.00
52859;DHT22;38721;53.098;6.596;2023-04-06T13:03:20;14.40;1.00
52859;DHT22;38721;53.098;6.596;2023-04-06T13:05:50;14.60;1.00
52859;DHT22;38721;53.098;6.596;2023-04-06T13:08:18;14.40;1.00
52859;DHT22;38721;53.098;6.596;2023-04-06T13:10:46;14.80;1.00
52859;DHT22;38721;53.098;6.596;2023-04-06T13:13:16;14.70;1.00
52859;DHT22;38721;53.098;6.596;2023-04-06T13:15:43;14.60;1.00
52859;DHT22;38721;53.098;6.596;2023-04-06T13:18:09;14.70;1.00
52859;DHT22;38721;53.098;6.596;2023-04-06T13:20:35;14.50;1.00
52859;DHT22;38721;53.098;6.596;2023-04-06T13:23:01;14.70;1.00
52859;DHT22;38721;53.098;6.596;2023-04-06T13:25:27;14.30;1.00
52859;DHT22;38721;53.098;6.596;2023-04-06T13:27:56;14.20;1.00
52859;DHT22;38721;53.098;6.596;2023-04-06T13:30:22;14.50;1.00
52859;DHT22;38721;53.098;6.596;2023-04-06T13:32:48;14.40;1.00
52859;DHT22;38721;53.098;6.596;2023-04-06T13:35:13;14.40;1.00
52859;DHT22;38721;53.098;6.596;2023-04-06T13:37:39;14.30;1.00
52859;DHT22;38721;53.098;6.596;2023-04-06T13:40:05;14.40;1.00
52859;DHT22;38721;53.098;6.596;2023-04-06T13:42:32;14.30;1.00
52859;DHT22;38721;53.098;6.596;2023-04-06T13:45:01;14.20;1.00
52859;DHT22;38721;53.098;6.596;2023-04-06T13:47:27;14.00;1.00
52859;DHT22;38721;53.098;6.596;2023-04-06T13:49:53;14.00;1.00
52859;DHT22;38721;53.098;6.596;2023-04-06T13:52:19;14.10;1.00
52859;DHT22;38721;53.098;6.596;2023-04-06T13:54:45;14.10;1.00
52859;DHT22;38721;53.098;6.596;2023-04-06T13:57:11;14.30;1.00
52859;DHT22;38721;53.098;6.596;2023-04-06T13:59:38;14.50;1.00
52859;DHT22;38721;53.098;6.596;2023-04-06T14:02:08;14.30;1.00
52859;DHT22;38721;53.098;6.596;2023-04-06T14:04:35;14.60;1.00
52859;DHT22;38721;53.098;6.596;2023-04-06T14:07:01;14.70;1.00
52859;DHT22;38721;53.098;6.596;2023-04-06T14:09:28;15.10;1.00
52859;DHT22;38721;53.098;6.596;2023-04-06T14:11:54;15.10;1.00
52859;DHT22;38721;53.098;6.596;2023-04-06T14:14:21;14.90;1.00
52859;DHT22;38721;53.098;6.596;2023-04-06T14:16:47;14.90;1.00
52859;DHT22;38721;53.098;6.596;2023-04-06T14:19:15;15.00;1.00
52859;DHT22;38721;53.098;6.596;2023-04-06T14:21:46;14.70;1.00
52859;DHT22;38721;53.098;6.596;2023-04-06T14:24:12;14.60;1.00
52859;DHT22;38721;53.098;6.596;2023-04-06T14:26:39;14.90;1.00
52859;DHT22;38721;53.098;6.596;2023-04-06T14:29:07;14.70;1.00
52859;DHT22;38721;53.098;6.596;2023-04-06T14:31:33;14.40;1.00
52859;DHT22;38721;53.098;6.596;2023-04-06T14:34:01;13.90;1.00
52859;DHT22;38721;53.098;6.596;2023-04-06T14:36:32;13.80;1.00
52859;DHT22;38721;53.098;6.596;2023-04-06T14:39:03;13.80;1.00
52859;DHT22;38721;53.098;6.596;2023-04-06T14:41:34;13.70;1.00
52859;DHT22;38721;53.098;6.596;2023-04-06T14:44:00;13.80;1.00
52859;DHT22;38721;53.098;6.596;2023-04-06T14:46:26;13.70;1.00
52859;DHT22;38721;53.098;6.596;2023-04-06T14:48:54;13.40;1.00
52859;DHT22;38721;53.098;6.596;2023-04-06T14:51:21;13.20;1.00
52859;DHT22;38721;53.098;6.596;2023-04-06T14:53:50;13.00;1.00
52859;DHT22;38721;53.098;6.596;2023-04-06T14:56:23;12.50;1.00
52859;DHT22;38721;53.098;6.596;2023-04-06T14:58:52;12.50;1.00
52859;DHT22;38721;53.098;6.596;2023-04-06T15:01:18;12.70;1.00
52859;DHT22;38721;53.098;6.596;2023-04-06T15:03:45;12.70;1.00
52859;DHT22;38721;53.098;6.596;2023-04-06T15:06:13;12.30;1.00
52859;DHT22;38721;53.098;6.596;2023-04-06T15:08:45;12.40;1.00
52859;DHT22;38721;53.098;6.596;2023-04-06T15:11:12;12.40;1.00
52859;DHT22;38721;53.098;6.596;2023-04-06T15:13:39;12.30;1.00
52859;DHT22;38721;53.098;6.596;2023-04-06T15:16:05;12.00;1.00
52859;DHT22;38721;53.098;6.596;2023-04-06T15:18:32;12.10;1.00
52859;DHT22;38721;53.098;6.596;2023-04-06T15:20:58;12.10;1.00
52859;DHT22;38721;53.098;6.596;2023-04-06T15:23:24;12.20;1.00
52859;DHT22;38721;53.098;6.596;2023-04-06T15:25:50;12.00;1.00
52859;DHT22;38721;53.098;6.596;2023-04-06T15:28:16;12.10;1.00
52859;DHT22;38721;53.098;6.596;2023-04-06T15:30:42;11.90;1.00
52859;DHT22;38721;53.098;6.596;2023-04-06T15:33:08;11.90;1.00
52859;DHT22;38721;53.098;6.596;2023-04-06T15:35:34;11.80;1.00
52859;DHT22;38721;53.098;6.596;2023-04-06T15:38:05;11.80;1.00
52859;DHT22;38721;53.098;6.596;2023-04-06T15:40:31;11.80;1.00
52859;DHT22;38721;53.098;6.596;2023-04-06T15:42:57;11.70;1.00
52859;DHT22;38721;53.098;6.596;2023-04-06T15:45:23;11.60;1.00
52859;DHT22;38721;53.098;6.596;2023-04-06T15:47:48;11.60;1.00
52859;DHT22;38721;53.098;6.596;2023-04-06T15:50:14;11.60;1.00
52859;DHT22;38721;53.098;6.596;2023-04-06T15:52:40;11.40;9.70
52859;DHT22;38721;53.098;6.596;2023-04-06T15:55:09;11.20;54.70
52859;DHT22;38721;53.098;6.596;2023-04-06T15:57:35;11.10;99.90